Time;durP1;ratioP1;P1;durP2;ratioP2;P2;SDS_P1;SDS_P2;PMS_P1;PMS_P2;Temp;Humidity;BMP_temperature;BMP_pressure;BME280_temperature;BME280_humidity;BME280_pressure;Samples;Min_cycle;Max_cycle;Signal;HPM_P1;HPM_P2
2021/04/12 00:00:40;;;;;;;9.57;6.57;;;;;;;11.14;38.06;95762.72;5049456;28;20880;-69
2021/04/12 00:03:16;;;;;;;9.73;6.40;;;;;;;11.00;38.22;95771.91;5049339;28;20565;-71
2021/04/12 00:06:03;;;;;;;11.17;6.60;;;;;;;11.04;37.73;95762.53;5049302;28;20550;-70
2021/04/12 00:08:47;;;;;;;9.90;6.93;;;;;;;11.07;37.42;95759.47;5049774;28;20466;-70
2021/04/12 00:11:14;;;;;;;11.50;6.63;;;;;;;10.97;37.75;95759.28;5050792;28;20518;-69
2021/04/12 00:13:47;;;;;;;14.80;7.57;;;;;;;11.12;37.96;95751.69;5053907;28;20450;-71
2021/04/12 00:16:38;;;;;;;9.33;6.83;;;;;;;11.02;37.83;95756.75;5053595;28;20997;-71
2021/04/12 00:19:13;;;;;;;9.63;6.27;;;;;;;11.06;37.95;95747.38;5055855;28;21003;-71
2021/04/12 00:21:48;;;;;;;11.97;7.00;;;;;;;11.01;37.99;95744.66;5055621;28;20438;-74
2021/04/12 00:24:26;;;;;;;10.77;6.30;;;;;;;10.92;37.90;95740.84;5053769;28;20496;-72
2021/04/12 00:27:30;;;;;;;9.70;5.97;;;;;;;10.95;38.25;95761.34;5052928;28;20466;-71
2021/04/12 00:30:16;;;;;;;10.13;5.77;;;;;;;10.90;37.64;95758.63;5051767;28;20450;-69
2021/04/12 00:32:53;;;;;;;10.40;6.10;;;;;;;10.94;38.03;95757.13;5053670;28;20435;-71
2021/04/12 00:35:26;;;;;;;6.90;5.30;;;;;;;10.90;37.41;95753.41;5053047;28;20427;-70
2021/04/12 00:38:07;;;;;;;8.87;5.80;;;;;;;10.99;37.41;95751.97;5051536;28;20458;-70
2021/04/12 00:40:45;;;;;;;8.03;5.50;;;;;;;11.00;37.93;95748.31;5053364;28;20438;-71
2021/04/12 00:43:24;;;;;;;14.07;6.07;;;;;;;10.88;37.76;95752.03;5053338;28;20823;-69
2021/04/12 00:46:27;;;;;;;9.93;6.47;;;;;;;11.05;38.15;95742.38;5052430;28;20446;-71
2021/04/12 00:49:23;;;;;;;9.67;5.20;;;;;;;11.14;37.33;95749.63;5051950;28;20812;-73
2021/04/12 00:51:58;;;;;;;13.33;5.00;;;;;;;11.10;37.37;95732.75;5051420;28;20450;-72
2021/04/12 00:54:46;;;;;;;8.33;5.30;;;;;;;11.09;37.54;95741.63;5051610;28;20817;-70
2021/04/12 00:57:36;;;;;;;6.20;4.80;;;;;;;11.13;37.72;95748.00;5052376;28;20453;-68
2021/04/12 01:00:09;;;;;;;9.10;4.33;;;;;;;11.12;37.35;95741.19;5056756;28;20576;-71
2021/04/12 01:02:58;;;;;;;9.00;4.67;;;;;;;11.11;37.41;95742.19;5078590;28;20452;-70
2021/04/12 01:06:00;;;;;;;10.23;5.00;;;;;;;11.18;38.04;95740.22;5074386;28;20503;-71
2021/04/12 01:08:36;;;;;;;9.57;5.47;;;;;;;11.10;37.51;95745.88;5081535;28;20572;-72
2021/04/12 01:11:37;;;;;;;9.97;5.10;;;;;;;11.15;37.65;95747.75;5085490;28;20456;-69
2021/04/12 01:14:22;;;;;;;7.47;5.07;;;;;;;11.08;38.02;95745.31;5092099;28;20441;-71
2021/04/12 01:17:07;;;;;;;11.63;5.30;;;;;;;11.09;38.12;95736.38;5079927;28;20549;-71
2021/04/12 01:19:51;;;;;;;8.43;5.10;;;;;;;11.08;38.10;95734.81;5093428;28;20440;-70
2021/04/12 01:22:21;;;;;;;7.37;5.03;;;;;;;11.12;38.38;95729.88;5079850;28;20830;-71
2021/04/12 01:25:41;;;;;;;7.20;5.07;;;;;;;11.15;38.56;95718.91;5091258;28;20468;-70
2021/04/12 01:28:32;;;;;;;7.40;4.60;;;;;;;11.11;38.52;95729.09;5076040;28;20492;-73
2021/04/12 01:31:36;;;;;;;10.47;4.93;;;;;;;11.17;38.79;95730.75;5085782;28;20464;-72
2021/04/12 01:34:24;;;;;;;8.13;5.23;;;;;;;11.12;38.73;95735.94;5091844;28;20453;-72
2021/04/12 01:37:24;;;;;;;9.13;5.53;;;;;;;11.11;39.25;95731.72;5079434;28;20450;-70
2021/04/12 01:40:08;;;;;;;9.87;5.73;;;;;;;11.01;39.21;95734.19;5090868;28;20436;-71
2021/04/12 01:42:37;;;;;;;7.27;4.87;;;;;;;11.03;38.66;95732.13;5077223;28;20533;-71
2021/04/12 01:45:15;;;;;;;15.23;5.57;;;;;;;11.00;39.41;95732.56;5072081;28;20441;-70
2021/04/12 01:48:23;;;;;;;9.93;5.40;;;;;;;11.01;39.36;95731.56;5077793;28;20497;-69
2021/04/12 01:51:05;;;;;;;8.63;5.57;;;;;;;11.00;38.96;95732.56;5074225;28;20453;-70
2021/04/12 01:53:49;;;;;;;11.30;6.37;;;;;;;11.02;38.83;95730.50;5083655;28;20457;-73
2021/04/12 01:56:41;;;;;;;9.47;5.60;;;;;;;10.76;39.29;95732.94;5082919;28;20558;-70
2021/04/12 01:59:25;;;;;;;9.40;5.63;;;;;;;10.78;39.67;95731.69;5092239;28;20615;-72
2021/04/12 02:02:16;;;;;;;9.23;5.83;;;;;;;10.93;39.83;95729.31;5078787;28;20497;-71
2021/04/12 02:04:51;;;;;;;7.43;5.63;;;;;;;10.95;39.26;95724.63;5090720;28;20445;-71
2021/04/12 02:07:40;;;;;;;10.13;5.80;;;;;;;11.00;39.91;95732.56;5080789;28;20663;-71
2021/04/12 02:10:45;;;;;;;12.80;6.97;;;;;;;11.02;39.22;95732.34;5087603;28;20476;-70
2021/04/12 02:13:29;;;;;;;9.53;5.80;;;;;;;11.09;39.82;95733.00;5085219;28;20456;-72
2021/04/12 02:16:20;;;;;;;6.97;5.50;;;;;;;11.04;39.56;95730.25;5090165;28;20453;-73
2021/04/12 02:19:29;;;;;;;11.63;6.10;;;;;;;11.07;39.57;95730.63;5088687;28;20492;-72
2021/04/12 02:22:04;;;;;;;9.90;5.70;;;;;;;11.17;39.55;95729.97;5078569;28;20457;-73
2021/04/12 02:24:37;;;;;;;9.77;5.73;;;;;;;11.17;38.74;95728.13;5091373;28;20487;-69
2021/04/12 02:27:17;;;;;;;11.37;5.60;;;;;;;11.09;38.96;95725.13;5078901;28;20484;-71
2021/04/12 02:29:49;;;;;;;7.73;5.63;;;;;;;11.05;39.07;95714.31;5090429;28;20507;-72
2021/04/12 02:32:42;;;;;;;11.70;5.90;;;;;;;10.97;40.07;95714.69;5082076;28;20434;-70
2021/04/12 02:35:25;;;;;;;8.70;5.70;;;;;;;11.06;39.98;95718.53;5070727;28;20460;-72
2021/04/12 02:38:19;;;;;;;10.50;5.63;;;;;;;11.00;40.53;95706.34;5082317;28;20441;-70
2021/04/12 02:40:48;;;;;;;10.83;5.83;;;;;;;11.03;40.09;95705.88;5086348;28;20496;-70
2021/04/12 02:43:24;;;;;;;7.87;5.43;;;;;;;11.01;40.22;95705.34;5083855;28;20784;-70
2021/04/12 02:46:14;;;;;;;10.00;6.53;;;;;;;10.95;40.81;95708.91;5085869;28;21048;-72
2021/04/12 02:49:10;;;;;;;9.73;6.47;;;;;;;10.85;39.72;95693.00;5087233;28;20572;-70
2021/04/12 02:51:51;;;;;;;9.83;5.87;;;;;;;10.95;40.46;95703.66;5079012;28;20453;-71
2021/04/12 02:55:05;;;;;;;12.80;6.40;;;;;;;10.90;40.37;95700.94;5050606;28;20990;-72
2021/04/12 02:57:47;;;;;;;12.17;6.13;;;;;;;10.92;39.82;95701.50;5077448;28;20452;-70
2021/04/12 03:00:31;;;;;;;9.60;5.83;;;;;;;10.86;40.62;95702.44;5086109;28;20461;-72
2021/04/12 03:03:30;;;;;;;11.17;5.37;;;;;;;10.88;41.47;95699.59;5081983;28;20445;-70
2021/04/12 03:06:15;;;;;;;11.23;7.17;;;;;;;10.87;41.11;95705.88;5084178;28;20456;-71
2021/04/12 03:09:03;;;;;;;13.50;6.97;;;;;;;10.78;41.78;95709.91;5085359;28;20493;-69
2021/04/12 03:12:03;;;;;;;10.27;7.07;;;;;;;10.82;42.02;95703.94;5083866;28;20463;-72
2021/04/12 03:14:35;;;;;;;13.10;7.80;;;;;;;10.84;41.41;95701.88;5050544;28;20438;-71
2021/04/12 03:17:29;;;;;;;12.67;7.00;;;;;;;10.88;41.41;95708.25;5078167;28;20829;-69
2021/04/12 03:19:58;;;;;;;13.07;7.50;;;;;;;10.87;42.05;95701.44;5077919;28;20596;-71
2021/04/12 03:22:37;;;;;;;13.47;8.40;;;;;;;10.92;41.41;95700.72;5080417;28;20966;-69
2021/04/12 03:25:14;;;;;;;15.50;8.33;;;;;;;10.86;41.88;95701.66;5086879;28;20452;-71
2021/04/12 03:27:43;;;;;;;12.90;8.17;;;;;;;10.96;40.85;95700.00;5075729;28;20488;-74
2021/04/12 03:30:32;;;;;;;14.13;9.17;;;;;;;10.84;41.34;95696.66;5071204;28;21131;-74
2021/04/12 03:33:25;;;;;;;12.57;8.73;;;;;;;10.87;40.77;95698.81;5081661;28;20445;-72
2021/04/12 03:36:22;;;;;;;11.70;8.00;;;;;;;10.82;41.35;95701.34;5084225;28;20536;-72
2021/04/12 03:38:59;;;;;;;14.17;8.50;;;;;;;10.83;41.13;95696.88;5087555;28;20543;-73
2021/04/12 03:41:47;;;;;;;14.03;9.13;;;;;;;10.89;41.14;95709.06;5079503;28;20967;-73
2021/04/12 03:44:32;;;;;;;12.80;8.10;;;;;;;10.86;40.82;95707.69;5050366;28;20447;-72
2021/04/12 03:47:26;;;;;;;12.97;8.23;;;;;;;10.95;41.40;95708.09;5076506;28;20554;-69
2021/04/12 03:50:08;;;;;;;13.20;8.27;;;;;;;10.82;40.90;95706.56;5088352;28;20432;-69
2021/04/12 03:52:53;;;;;;;13.63;8.50;;;;;;;10.96;40.97;95702.63;5074360;28;20495;-73
2021/04/12 03:55:33;;;;;;;14.40;9.27;;;;;;;10.91;41.35;95702.53;5082125;28;20810;-70
2021/04/12 03:58:21;;;;;;;14.07;8.57;;;;;;;10.97;41.76;95704.22;5081499;28;20480;-75
2021/04/12 04:00:50;;;;;;;15.27;8.63;;;;;;;10.88;41.53;95700.41;5081660;28;20449;-74
2021/04/12 04:03:29;;;;;;;14.73;9.57;;;;;;;10.97;41.64;95700.78;5084990;28;20524;-73
2021/04/12 04:06:20;;;;;;;19.93;9.30;;;;;;;11.02;41.58;95699.03;5079406;28;20868;-70
2021/04/12 04:09:04;;;;;;;24.30;9.50;;;;;;;10.93;42.01;95700.47;5071523;28;20564;-71
2021/04/12 04:11:30;;;;;;;21.33;9.93;;;;;;;10.97;42.32;95698.97;5075054;28;20446;-70
2021/04/12 04:14:15;;;;;;;22.93;10.50;;;;;;;10.95;42.18;95693.16;5069725;28;20840;-72
2021/04/12 04:17:19;;;;;;;26.67;9.97;;;;;;;11.00;42.25;95695.84;5069041;28;20442;-71
2021/04/12 04:20:03;;;;;;;26.60;11.10;;;;;;;10.89;42.41;95688.84;5083537;28;20449;-74
2021/04/12 04:22:53;;;;;;;24.37;10.70;;;;;;;10.92;42.65;95687.59;5089852;28;20443;-72
2021/04/12 04:25:19;;;;;;;28.73;11.37;;;;;;;10.95;41.79;95694.97;5089719;28;20507;-73
2021/04/12 04:28:24;;;;;;;23.00;11.43;;;;;;;10.94;42.25;95702.06;5090414;28;20505;-72
2021/04/12 04:31:27;;;;;;;26.10;11.43;;;;;;;10.96;42.32;95700.00;5089245;28;20436;-71
2021/04/12 04:34:25;;;;;;;21.67;10.83;;;;;;;11.01;42.59;95696.66;5089444;28;20460;-75
2021/04/12 04:37:22;;;;;;;26.67;11.87;;;;;;;10.98;42.44;95697.91;5089171;28;20536;-72
2021/04/12 04:39:55;;;;;;;29.40;13.80;;;;;;;10.92;42.48;95688.41;5090454;28;20457;-71
2021/04/12 04:42:28;;;;;;;26.73;15.00;;;;;;;11.01;42.41;95691.41;5089243;28;20432;-71
2021/04/12 04:45:17;;;;;;;26.23;13.73;;;;;;;10.99;42.25;95689.03;5089029;28;20439;-76
2021/04/12 04:48:04;;;;;;;31.00;14.20;;;;;;;11.07;42.47;95688.66;5085043;28;20470;-73
2021/04/12 04:50:40;;;;;;;28.33;14.77;;;;;;;11.11;41.94;95687.13;5078344;28;20557;-72
2021/04/12 04:53:33;;;;;;;33.50;13.90;;;;;;;11.06;41.77;95687.03;5061943;28;20444;-72
2021/04/12 04:56:09;;;;;;;31.90;14.17;;;;;;;11.13;41.39;95695.53;5081391;28;20463;-72
2021/04/12 04:58:50;;;;;;;28.83;15.97;;;;;;;11.13;42.45;95690.31;5071348;28;20437;-69
2021/04/12 05:01:54;;;;;;;54.80;22.40;;;;;;;11.19;42.75;95694.59;5071339;28;20487;-66
2021/04/12 05:04:43;;;;;;;95.07;52.47;;;;;;;11.21;43.05;95708.28;5073007;28;20545;-69
2021/04/12 05:07:40;;;;;;;41.33;16.03;;;;;;;11.24;43.26;95704.34;5072519;28;20516;-68
2021/04/12 05:10:10;;;;;;;46.13;14.90;;;;;;;11.29;43.43;95703.66;5073346;28;20887;-73
2021/04/12 05:12:55;;;;;;;51.60;15.77;;;;;;;11.30;42.86;95699.97;5076021;28;20438;-75
2021/04/12 05:15:46;;;;;;;65.63;23.53;;;;;;;11.38;43.36;95707.47;5072115;28;20465;-72
2021/04/12 05:18:32;;;;;;;34.43;16.17;;;;;;;11.24;42.70;95710.41;5072439;28;20824;-77
2021/04/12 05:21:15;;;;;;;43.57;16.13;;;;;;;11.27;42.60;95684.72;5071834;28;20552;-76
2021/04/12 05:24:09;;;;;;;39.03;15.50;;;;;;;11.38;42.36;95694.34;5072451;28;20444;-76
2021/04/12 05:27:06;;;;;;;34.30;14.33;;;;;;;11.56;44.31;95700.13;5070533;28;21042;-71
2021/04/12 05:29:50;;;;;;;39.73;15.00;;;;;;;11.44;44.11;95669.78;5070140;28;21039;-73
2021/04/12 05:32:45;;;;;;;33.53;15.10;;;;;;;11.57;43.36;95685.19;5071843;28;20430;-71
2021/04/12 05:35:49;;;;;;;41.30;15.83;;;;;;;11.46;42.51;95688.69;5071044;28;20477;-71
2021/04/12 05:38:18;;;;;;;34.60;15.87;;;;;;;11.53;42.05;95687.47;5072533;28;20430;-73
2021/04/12 05:40:51;;;;;;;46.57;18.97;;;;;;;11.65;41.96;95682.16;5072422;28;20441;-71
2021/04/12 05:44:03;;;;;;;46.37;20.30;;;;;;;11.61;41.90;95673.94;5070993;28;20454;-71
2021/04/12 05:46:49;;;;;;;37.53;19.17;;;;;;;11.68;42.00;95686.91;5071778;28;20821;-73
2021/04/12 05:49:35;;;;;;;46.07;19.73;;;;;;;11.83;42.53;95673.97;5060872;28;20441;-71
2021/04/12 05:52:23;;;;;;;42.60;21.60;;;;;;;11.92;41.56;95675.94;5071829;28;20528;-71
2021/04/12 05:55:27;;;;;;;53.43;25.77;;;;;;;11.92;41.54;95683.81;5071983;28;20434;-71
2021/04/12 05:58:20;;;;;;;53.97;26.70;;;;;;;12.08;42.90;95682.97;5072289;28;20481;-71
2021/04/12 06:00:49;;;;;;;77.40;30.00;;;;;;;12.14;42.73;95686.44;5071706;28;21113;-73
2021/04/12 06:03:34;;;;;;;77.40;30.10;;;;;;;12.14;41.83;95681.19;5071902;28;20841;-72
2021/04/12 06:06:29;;;;;;;41.57;20.90;;;;;;;12.20;41.59;95690.72;5071374;28;20442;-71
2021/04/12 06:08:58;;;;;;;32.10;17.33;;;;;;;12.24;40.83;95692.59;5070868;28;20542;-72
2021/04/12 06:11:34;;;;;;;33.13;16.67;;;;;;;12.03;41.28;95674.22;5071669;28;20457;-72
2021/04/12 06:14:01;;;;;;;37.07;15.83;;;;;;;12.08;40.77;95685.59;5072056;28;20556;-72
2021/04/12 06:16:33;;;;;;;47.27;16.90;;;;;;;12.22;40.44;95688.66;5071227;28;21051;-73
2021/04/12 06:19:30;;;;;;;32.23;15.70;;;;;;;12.40;40.19;95679.63;5071783;28;20892;-71
2021/04/12 06:22:18;;;;;;;28.37;15.20;;;;;;;12.35;40.13;95677.75;5070901;28;20534;-72
2021/04/12 06:25:06;;;;;;;28.07;13.53;;;;;;;12.50;40.17;95674.50;5071785;28;20927;-72
2021/04/12 06:27:43;;;;;;;31.63;13.07;;;;;;;12.60;40.57;95685.91;5071569;28;20556;-74
2021/04/12 06:30:31;;;;;;;30.27;11.80;;;;;;;12.47;39.53;95683.66;5070750;28;20947;-74
2021/04/12 06:33:03;;;;;;;24.37;11.57;;;;;;;12.70;39.19;95678.09;5071496;28;20886;-72
2021/04/12 06:35:45;;;;;;;23.03;11.63;;;;;;;12.71;39.51;95686.78;5070969;28;20442;-72
2021/04/12 06:38:31;;;;;;;31.73;12.30;;;;;;;12.69;39.33;95689.66;5071283;28;20441;-73
2021/04/12 06:41:32;;;;;;;24.17;11.33;;;;;;;12.82;39.17;95684.00;5070899;28;20449;-72
2021/04/12 06:44:23;;;;;;;21.70;11.17;;;;;;;12.89;38.41;95684.59;5071117;28;20529;-72
2021/04/12 06:47:17;;;;;;;23.27;11.17;;;;;;;12.84;38.23;95675.88;5070532;28;20438;-73
2021/04/12 06:50:05;;;;;;;23.60;12.43;;;;;;;12.95;38.15;95678.34;5070882;28;20450;-74
2021/04/12 06:52:59;;;;;;;23.30;12.13;;;;;;;12.89;38.34;95684.59;5070954;28;20812;-74
2021/04/12 06:56:04;;;;;;;26.03;13.77;;;;;;;13.05;38.74;95686.34;5070298;28;20522;-73
2021/04/12 06:58:56;;;;;;;22.47;12.13;;;;;;;13.13;38.18;95685.09;5070687;28;20434;-73
2021/04/12 07:01:53;;;;;;;26.33;13.50;;;;;;;13.15;38.30;95688.25;5070580;28;20921;-74
2021/04/12 07:04:48;;;;;;;26.37;13.90;;;;;;;13.26;37.55;95678.59;5070447;28;20891;-75
2021/04/12 07:07:51;;;;;;;32.47;14.13;;;;;;;13.33;36.87;95685.22;5070185;28;20934;-74
2021/04/12 07:10:42;;;;;;;23.73;13.50;;;;;;;13.50;37.08;95685.06;5070299;28;20850;-74
2021/04/12 07:13:24;;;;;;;25.43;12.77;;;;;;;13.46;37.49;95678.72;5070883;28;20461;-73
2021/04/12 07:16:23;;;;;;;27.43;13.83;;;;;;;13.63;38.89;95679.38;5070686;28;20438;-73
2021/04/12 07:19:14;;;;;;;24.13;12.63;;;;;;;13.80;38.46;95678.13;5071043;28;20505;-73
2021/04/12 07:21:55;;;;;;;25.03;12.63;;;;;;;13.78;35.70;95682.06;5069973;28;20979;-73
2021/04/12 07:24:40;;;;;;;23.50;13.33;;;;;;;13.74;35.86;95676.50;5070543;28;20446;-74
2021/04/12 07:27:37;;;;;;;20.47;12.90;;;;;;;13.60;38.34;95677.22;5070124;28;20899;-75
2021/04/12 07:30:38;;;;;;;26.83;14.13;;;;;;;13.87;36.95;95670.78;5069889;28;21006;-72
2021/04/12 07:33:18;;;;;;;28.37;13.80;;;;;;;13.96;37.51;95663.97;5070158;28;20521;-73
2021/04/12 07:36:08;;;;;;;22.03;13.50;;;;;;;13.91;35.78;95666.59;5069990;28;20844;-73
2021/04/12 07:38:48;;;;;;;25.07;13.67;;;;;;;14.01;36.24;95671.91;5070743;28;20533;-74
2021/04/12 07:41:52;;;;;;;27.40;12.77;;;;;;;14.02;36.53;95675.34;5069825;28;20433;-73
2021/04/12 07:44:18;;;;;;;24.50;14.17;;;;;;;14.08;37.14;95661.13;5070518;28;20540;-74
2021/04/12 07:46:52;;;;;;;23.57;12.20;;;;;;;14.29;36.17;95657.53;5068195;28;20445;-75
2021/04/12 07:49:40;;;;;;;20.73;11.20;;;;;;;14.45;36.44;95658.38;5070299;28;21008;-75
2021/04/12 07:52:40;;;;;;;23.43;11.10;;;;;;;14.63;35.68;95653.41;5070273;28;20891;-73
2021/04/12 07:55:25;;;;;;;18.50;10.03;;;;;;;14.68;34.97;95650.78;5069427;28;20446;-74
2021/04/12 07:58:10;;;;;;;12.87;8.43;;;;;;;14.77;34.43;95643.13;5070011;28;20452;-75
2021/04/12 08:00:55;;;;;;;15.87;9.37;;;;;;;15.01;34.72;95641.53;5069772;28;20998;-75
2021/04/12 08:03:59;;;;;;;18.00;10.07;;;;;;;14.82;34.11;95629.91;5069796;28;20533;-75
2021/04/12 08:06:31;;;;;;;18.33;9.53;;;;;;;14.93;35.46;95631.50;5069486;28;20528;-75
2021/04/12 08:09:26;;;;;;;18.53;9.43;;;;;;;15.10;34.43;95617.00;5070102;28;20481;-75
2021/04/12 08:12:14;;;;;;;18.07;8.03;;;;;;;15.14;33.19;95636.50;5069311;28;20450;-72
2021/04/12 08:15:12;;;;;;;18.07;8.50;;;;;;;14.82;34.32;95636.00;5070025;28;20452;-73
2021/04/12 08:18:21;;;;;;;17.87;8.53;;;;;;;15.16;35.91;95626.47;5069983;28;20478;-73
2021/04/12 08:21:06;;;;;;;16.33;8.80;;;;;;;15.35;34.58;95623.28;5069477;28;20884;-73
2021/04/12 08:24:23;;;;;;;18.33;8.63;;;;;;;15.09;34.64;95618.03;5069982;28;20444;-74
2021/04/12 08:27:10;;;;;;;20.87;9.30;;;;;;;15.51;34.85;95612.44;5067058;28;20449;-75
2021/04/12 08:30:14;;;;;;;17.40;9.10;;;;;;;15.62;34.21;95611.38;5067233;28;20525;-73
2021/04/12 08:33:12;;;;;;;15.73;9.60;;;;;;;15.76;33.65;95609.75;5071551;28;20461;-73
2021/04/12 08:36:04;;;;;;;18.10;10.23;;;;;;;15.79;33.78;95603.13;5073265;28;20438;-74
2021/04/12 08:39:14;;;;;;;17.37;8.80;;;;;;;15.94;34.98;95595.13;5073604;28;20438;-73
2021/04/12 08:41:46;;;;;;;17.63;9.40;;;;;;;16.17;34.45;95600.56;5073077;28;20437;-75
2021/04/12 08:44:44;;;;;;;20.30;9.83;;;;;;;16.31;34.27;95595.47;5073877;28;20456;-76
2021/04/12 08:47:40;;;;;;;20.47;9.10;;;;;;;16.45;32.57;95585.84;5073025;28;20874;-76
2021/04/12 08:50:22;;;;;;;16.90;9.20;;;;;;;16.19;32.23;95587.06;5073604;28;20444;-75
2021/04/12 08:53:13;;;;;;;16.37;8.50;;;;;;;16.23;32.62;95572.25;5073523;28;20861;-74
2021/04/12 08:55:46;;;;;;;17.47;9.27;;;;;;;16.30;32.00;95583.31;5082176;28;20521;-75
2021/04/12 08:58:38;;;;;;;22.07;9.20;;;;;;;16.46;34.51;95576.84;5074183;28;21050;-73
2021/04/12 09:01:17;;;;;;;16.30;9.40;;;;;;;16.86;34.01;95575.81;5086907;28;20448;-73
2021/04/12 09:04:23;;;;;;;15.37;8.90;;;;;;;17.02;33.13;95575.34;5089932;28;20430;-74
2021/04/12 09:07:35;;;;;;;18.50;9.30;;;;;;;17.06;32.51;95565.78;5085746;28;20438;-76
2021/04/12 09:10:36;;;;;;;14.03;8.83;;;;;;;16.93;31.65;95566.44;5077708;28;20522;-73
2021/04/12 09:13:17;;;;;;;18.43;9.73;;;;;;;17.14;32.09;95556.47;5073288;28;20430;-74
2021/04/12 09:16:10;;;;;;;19.73;9.13;;;;;;;17.22;33.15;95550.56;5072958;28;20438;-75
2021/04/12 09:19:11;;;;;;;18.13;9.30;;;;;;;17.00;31.62;95544.94;5073125;28;20457;-73
2021/04/12 09:21:49;;;;;;;15.57;8.73;;;;;;;17.22;32.86;95538.09;5072884;28;20446;-73
2021/04/12 09:24:50;;;;;;;25.87;10.70;;;;;;;17.58;32.52;95535.88;5072889;28;20437;-74
2021/04/12 09:27:52;;;;;;;19.33;9.60;;;;;;;17.54;31.89;95542.00;5072726;28;20978;-75
2021/04/12 09:30:40;;;;;;;20.07;9.80;;;;;;;17.73;33.46;95535.72;5072071;28;20467;-75
2021/04/12 09:33:44;;;;;;;15.70;8.57;;;;;;;17.75;31.84;95530.13;5073320;28;20529;-75
2021/04/12 09:36:59;;;;;;;24.00;9.03;;;;;;;18.28;32.04;95518.25;5072459;28;20448;-75
2021/04/12 09:39:41;;;;;;;24.80;9.97;;;;;;;18.85;31.73;95512.56;5071637;28;20543;-74
2021/04/12 09:42:26;;;;;;;18.17;9.93;;;;;;;19.27;30.11;95513.44;5072323;28;20813;-74
2021/04/12 09:45:13;;;;;;;18.97;9.40;;;;;;;19.80;30.29;95499.34;5072327;28;20474;-75
2021/04/12 09:48:20;;;;;;;13.20;9.43;;;;;;;19.60;28.89;95506.94;5072283;28;20858;-74
2021/04/12 09:51:26;;;;;;;21.23;9.80;;;;;;;20.06;28.84;95496.91;5069399;28;20444;-75
2021/04/12 09:54:17;;;;;;;17.77;9.67;;;;;;;19.92;28.02;95488.19;5070205;28;20441;-75
2021/04/12 09:56:53;;;;;;;18.43;9.97;;;;;;;19.82;28.65;95477.75;5071890;28;20446;-74
2021/04/12 09:59:38;;;;;;;23.03;9.10;;;;;;;19.99;28.00;95483.25;5072690;28;21025;-75
2021/04/12 10:02:30;;;;;;;17.37;8.87;;;;;;;20.77;28.52;95477.41;5073374;28;20188;-74
2021/04/12 10:05:10;;;;;;;16.77;10.07;;;;;;;21.23;28.37;95469.06;5072763;28;20614;-75
2021/04/12 10:07:58;;;;;;;15.13;9.43;;;;;;;21.41;27.13;95471.47;5071746;28;20475;-74
2021/04/12 10:10:49;;;;;;;14.97;8.97;;;;;;;21.36;27.11;95473.50;5071316;28;20473;-75
2021/04/12 10:13:32;;;;;;;16.53;9.67;;;;;;;20.94;26.61;95478.31;5072204;28;20184;-75
2021/04/12 10:16:03;;;;;;;14.50;9.77;;;;;;;20.48;27.10;95464.56;5071502;28;20196;-74
2021/04/12 10:18:41;;;;;;;20.37;9.07;;;;;;;21.36;28.14;95454.84;5071719;28;20196;-74
2021/04/12 10:21:26;;;;;;;20.17;8.50;;;;;;;21.77;26.70;95447.25;5071409;28;20491;-75
2021/04/12 10:24:12;;;;;;;16.40;9.07;;;;;;;22.19;26.34;95443.84;5071818;28;20230;-76
2021/04/12 10:27:05;;;;;;;23.60;9.77;;;;;;;22.06;26.21;95450.13;5071366;28;20961;-74
2021/04/12 10:29:45;;;;;;;18.80;10.00;;;;;;;22.27;25.89;95432.38;5071442;28;20238;-74
2021/04/12 10:32:25;;;;;;;18.83;9.97;;;;;;;22.31;25.39;95436.00;5071451;28;20202;-74
2021/04/12 10:35:19;;;;;;;19.10;9.57;;;;;;;22.52;26.17;95415.53;5071719;28;20211;-76
2021/04/12 10:38:04;;;;;;;13.37;9.47;;;;;;;22.36;24.12;95427.81;5071886;28;20275;-77
2021/04/12 10:40:45;;;;;;;14.30;9.73;;;;;;;22.12;24.02;95422.16;5071217;28;20705;-76
2021/04/12 10:43:42;;;;;;;18.60;9.77;;;;;;;22.47;23.58;95413.03;5071449;28;20588;-74
2021/04/12 10:46:23;;;;;;;18.77;9.97;;;;;;;22.65;24.62;95425.28;5070896;28;20238;-75
2021/04/12 10:48:49;;;;;;;24.97;9.87;;;;;;;23.14;24.63;95416.63;5071118;28;20307;-73
2021/04/12 10:51:40;;;;;;;20.77;9.40;;;;;;;23.29;24.52;95422.50;5070599;28;20192;-74
2021/04/12 10:54:21;;;;;;;18.93;9.67;;;;;;;23.72;24.43;95412.41;5070899;28;20192;-75
2021/04/12 10:56:57;;;;;;;22.60;9.47;;;;;;;23.50;24.52;95402.00;5070545;28;20192;-74
2021/04/12 10:59:41;;;;;;;13.43;9.57;;;;;;;23.30;24.08;95408.09;5071186;28;20275;-76
2021/04/12 11:02:40;;;;;;;22.20;9.10;;;;;;;23.59;24.20;95400.06;5070682;28;20196;-73
2021/04/12 11:05:15;;;;;;;22.73;9.20;;;;;;;23.31;23.48;95396.28;5070692;28;20203;-74
2021/04/12 11:08:06;;;;;;;16.30;9.30;;;;;;;22.75;23.57;95387.53;5069447;28;20207;-74
2021/04/12 11:10:56;;;;;;;15.43;8.63;;;;;;;23.47;24.43;95381.22;5070270;28;20227;-76
2021/04/12 11:13:35;;;;;;;22.13;9.10;;;;;;;24.17;24.07;95372.38;5070964;28;20666;-77
2021/04/12 11:16:35;;;;;;;21.90;9.47;;;;;;;24.71;23.50;95368.53;5070605;28;20199;-78
2021/04/12 11:19:19;;;;;;;18.20;8.80;;;;;;;25.50;23.51;95365.34;5070800;28;20248;-76
2021/04/12 11:21:51;;;;;;;19.57;8.63;;;;;;;25.71;22.55;95365.97;5070427;28;20200;-78
2021/04/12 11:24:39;;;;;;;39.57;8.40;;;;;;;25.93;22.33;95365.44;5070693;28;20207;-76
2021/04/12 11:27:43;;;;;;;13.97;6.80;;;;;;;26.36;21.95;95354.78;5070194;28;20279;-75
2021/04/12 11:30:18;;;;;;;33.17;9.03;;;;;;;26.36;21.12;95346.75;5070903;28;20203;-75
2021/04/12 11:32:54;;;;;;;18.30;7.30;;;;;;;26.19;20.56;95344.34;5070951;28;20206;-75
2021/04/12 11:35:59;;;;;;;15.20;6.73;;;;;;;26.07;20.76;95330.19;5070208;28;20264;-74
2021/04/12 11:38:37;;;;;;;17.20;6.97;;;;;;;26.27;21.37;95338.06;5070721;28;20601;-75
2021/04/12 11:41:26;;;;;;;13.13;6.03;;;;;;;26.31;20.42;95320.13;5070529;28;20215;-76
2021/04/12 11:43:57;;;;;;;15.57;5.33;;;;;;;26.56;20.19;95332.28;5070438;28;20192;-74
2021/04/12 11:46:55;;;;;;;21.33;6.03;;;;;;;26.64;21.33;95323.25;5069982;28;20681;-75
2021/04/12 11:49:49;;;;;;;12.60;4.90;;;;;;;25.37;20.38;95328.88;5070343;28;20308;-74
2021/04/12 11:52:24;;;;;;;15.97;5.57;;;;;;;24.95;21.05;95328.34;5070039;28;20227;-76
2021/04/12 11:55:06;;;;;;;11.60;4.93;;;;;;;24.57;21.34;95328.63;5070263;28;20290;-77
2021/04/12 11:57:43;;;;;;;10.93;4.47;;;;;;;23.69;21.82;95314.03;5070094;28;20278;-75
2021/04/12 12:00:21;;;;;;;13.13;5.30;;;;;;;23.80;22.23;95321.34;5069883;28;20190;-75
2021/04/12 12:02:48;;;;;;;15.37;5.10;;;;;;;;;;5070432;28;20230;-76
2021/04/12 12:05:25;;;;;;;13.73;4.63;;;;;;;24.66;22.44;95302.50;5070058;28;20226;-77
2021/04/12 12:07:55;;;;;;;15.10;4.40;;;;;;;24.44;21.76;95310.19;5073484;28;20205;-74
2021/04/12 12:10:36;;;;;;;12.90;4.43;;;;;;;24.88;22.33;95310.16;5073130;28;20330;-75
2021/04/12 12:13:21;;;;;;;13.10;4.43;;;;;;;24.95;21.29;95307.69;5074636;28;20746;-74
2021/04/12 12:15:59;;;;;;;13.93;4.27;;;;;;;24.88;21.67;95309.38;5074089;28;20281;-75
2021/04/12 12:18:30;;;;;;;12.20;4.43;;;;;;;25.17;21.39;95300.28;5074116;28;20294;-76
2021/04/12 12:21:12;;;;;;;9.77;3.97;;;;;;;25.30;22.15;95296.47;5074323;28;20269;-76
2021/04/12 12:23:41;;;;;;;11.90;4.17;;;;;;;25.15;21.59;95284.53;5074426;28;20211;-75
2021/04/12 12:26:18;;;;;;;9.83;4.10;;;;;;;24.33;21.92;95284.94;5073908;28;20290;-74
2021/04/12 12:29:05;;;;;;;11.57;4.07;;;;;;;23.99;21.96;95281.50;5074270;28;20219;-74
2021/04/12 12:31:39;;;;;;;12.73;4.20;;;;;;;24.45;22.38;95282.28;5073820;28;20192;-75
2021/04/12 12:34:33;;;;;;;11.30;4.00;;;;;;;24.77;22.03;95282.22;5074055;28;20192;-76
2021/04/12 12:37:02;;;;;;;11.57;4.20;;;;;;;24.62;21.65;95274.03;5073245;28;20196;-76
2021/04/12 12:39:32;;;;;;;14.90;4.20;;;;;;;24.41;22.08;95255.38;5073733;28;20196;-74
2021/04/12 12:42:02;;;;;;;13.13;3.80;;;;;;;24.94;22.78;95246.38;5073565;28;20642;-74
2021/04/12 12:44:29;;;;;;;14.13;4.10;;;;;;;25.02;21.51;95256.97;5073987;28;20212;-74
2021/04/12 12:47:04;;;;;;;15.20;4.50;;;;;;;25.61;20.99;95253.72;5072839;28;20242;-75
2021/04/12 12:49:32;;;;;;;12.53;4.13;;;;;;;25.58;20.65;95243.66;5073505;28;20272;-74
2021/04/12 12:52:07;;;;;;;10.37;3.90;;;;;;;25.87;20.50;95237.94;5073153;28;20283;-76